createdAt,value
2017-06-29T00:02:01.438Z,96819
2017-06-29T00:04:29.510Z,96816
2017-06-29T00:06:57.611Z,96809
2017-06-29T00:09:26.455Z,96809
2017-06-29T00:11:54.532Z,96805
2017-06-29T00:14:22.604Z,96804
2017-06-29T00:16:50.715Z,96812
2017-06-29T00:19:19.547Z,96809
2017-06-29T00:21:47.624Z,96805
2017-06-29T00:24:15.687Z,96813
2017-06-29T00:26:43.791Z,96808
2017-06-29T00:29:11.863Z,96807
2017-06-29T00:31:39.931Z,96811
2017-06-29T00:34:07.999Z,96795
2017-06-29T00:36:36.087Z,96798
2017-06-29T00:39:04.153Z,96800
2017-06-29T00:41:32.224Z,96791
2017-06-29T00:44:00.296Z,96800
2017-06-29T00:46:28.626Z,96813
2017-06-29T00:48:56.697Z,96831
2017-06-29T00:51:24.764Z,96848
2017-06-29T00:53:53.604Z,96846
2017-06-29T00:56:21.671Z,96849
2017-06-29T00:58:49.747Z,96850
2017-06-29T01:01:17.820Z,96848
2017-06-29T01:03:45.902Z,96856
2017-06-29T01:06:13.983Z,96853
2017-06-29T01:08:42.055Z,96857
2017-06-29T01:11:10.124Z,96862
2017-06-29T01:13:38.204Z,96850
2017-06-29T01:16:06.300Z,96857
2017-06-29T01:18:35.131Z,96852
2017-06-29T01:21:03.217Z,96850
2017-06-29T01:23:31.287Z,96856
2017-06-29T01:25:59.359Z,96851
2017-06-29T01:28:27.430Z,96853
2017-06-29T01:30:55.503Z,96848
2017-06-29T01:33:23.581Z,96856
2017-06-29T01:35:51.655Z,96858
2017-06-29T01:38:19.723Z,96865
2017-06-29T01:40:47.795Z,96863
2017-06-29T01:43:15.868Z,96861
2017-06-29T01:45:43.957Z,96856
2017-06-29T01:48:12.016Z,96858
2017-06-29T01:50:40.082Z,96864
2017-06-29T01:53:08.158Z,96863
2017-06-29T01:55:36.227Z,96861
2017-06-29T01:58:04.303Z,96859
2017-06-29T02:00:32.363Z,96858
2017-06-29T02:03:00.453Z,96850
2017-06-29T02:05:28.518Z,96854
2017-06-29T02:07:56.595Z,96863
2017-06-29T02:10:24.787Z,96864
2017-06-29T02:12:52.863Z,96864
2017-06-29T02:15:20.932Z,96864
2017-06-29T02:17:49.003Z,96859
2017-06-29T02:20:17.070Z,96868
2017-06-29T02:22:45.142Z,96867
2017-06-29T02:25:13.223Z,96876
2017-06-29T02:27:41.288Z,96861
2017-06-29T02:30:09.371Z,96866
2017-06-29T02:32:38.208Z,96869
2017-06-29T02:35:06.280Z,96860
2017-06-29T02:37:34.353Z,96857
2017-06-29T02:40:02.452Z,96859
2017-06-29T02:42:30.522Z,96857
2017-06-29T02:44:58.592Z,96856
2017-06-29T02:47:26.674Z,96865
2017-06-29T02:49:54.735Z,96866
2017-06-29T02:52:22.811Z,96859
2017-06-29T02:54:50.882Z,96863
2017-06-29T02:57:18.955Z,96867
2017-06-29T02:59:47.026Z,96864
2017-06-29T03:02:15.100Z,96861
2017-06-29T03:04:43.177Z,96871
2017-06-29T03:07:11.248Z,96871
2017-06-29T03:09:39.316Z,96866
2017-06-29T03:12:07.388Z,96867
2017-06-29T03:14:35.542Z,96865
2017-06-29T03:17:03.605Z,96861
2017-06-29T03:19:31.685Z,96866
2017-06-29T03:21:59.755Z,96865
2017-06-29T03:24:27.899Z,96859
2017-06-29T03:26:56.730Z,96869
2017-06-29T03:29:24.815Z,96860
2017-06-29T03:31:52.887Z,96863
2017-06-29T03:34:20.961Z,96854
2017-06-29T03:36:49.040Z,96860
2017-06-29T03:39:17.108Z,96852
2017-06-29T03:41:45.179Z,96857
2017-06-29T03:44:13.249Z,96846
2017-06-29T03:46:41.323Z,96859
2017-06-29T03:49:09.399Z,96853
2017-06-29T03:51:37.467Z,96841
2017-06-29T03:54:05.539Z,96850
2017-06-29T03:56:33.626Z,96847
2017-06-29T03:59:01.699Z,96844
2017-06-29T04:01:29.767Z,96848
2017-06-29T04:03:57.844Z,96839
2017-06-29T04:06:25.916Z,96837
2017-06-29T04:08:53.996Z,96844
2017-06-29T04:11:22.088Z,96841
2017-06-29T04:13:50.175Z,96845
2017-06-29T04:16:18.238Z,96841
2017-06-29T04:18:47.095Z,96830
2017-06-29T04:21:15.172Z,96841
2017-06-29T04:23:43.240Z,96841
2017-06-29T04:26:11.400Z,96836
2017-06-29T04:28:39.474Z,96837
2017-06-29T04:31:07.565Z,96844
2017-06-29T04:33:35.643Z,96843
2017-06-29T04:36:03.715Z,96844
2017-06-29T04:38:31.787Z,96847
2017-06-29T04:40:59.870Z,96845
2017-06-29T04:43:28.703Z,96841
2017-06-29T04:45:56.775Z,96849
2017-06-29T04:48:24.865Z,96853
2017-06-29T04:50:52.930Z,96852
2017-06-29T04:53:21.011Z,96852
2017-06-29T04:55:49.092Z,96849
2017-06-29T04:58:17.179Z,96850
2017-06-29T05:00:45.247Z,96857
2017-06-29T05:03:13.325Z,96850
2017-06-29T05:05:41.402Z,96860
2017-06-29T05:08:09.469Z,96866
2017-06-29T05:10:37.539Z,96866
2017-06-29T05:13:05.620Z,96863
2017-06-29T05:15:33.691Z,96868
2017-06-29T05:18:01.763Z,96862
2017-06-29T05:20:29.925Z,96859
2017-06-29T05:22:57.995Z,96865
2017-06-29T05:25:26.064Z,96864
2017-06-29T05:27:54.506Z,96863
2017-06-29T05:30:22.586Z,96866
2017-06-29T05:32:50.668Z,96862
2017-06-29T05:35:18.730Z,96860
2017-06-29T05:37:46.803Z,96871
2017-06-29T05:40:14.880Z,96859
2017-06-29T05:42:42.970Z,96874
2017-06-29T05:45:11.042Z,96873
2017-06-29T05:47:39.114Z,96878
2017-06-29T05:50:07.199Z,96880
2017-06-29T05:52:35.266Z,96873
2017-06-29T05:55:03.348Z,96890
2017-06-29T05:57:31.431Z,96882
2017-06-29T05:59:59.503Z,96891
2017-06-29T06:02:27.572Z,96896
2017-06-29T06:04:55.647Z,96901
2017-06-29T06:07:23.716Z,96898
2017-06-29T06:09:51.779Z,96901
2017-06-29T06:12:19.863Z,96910
2017-06-29T06:14:47.931Z,96896
2017-06-29T06:17:16.006Z,96911
2017-06-29T06:19:44.076Z,96901
2017-06-29T06:22:12.184Z,96906
2017-06-29T06:24:40.247Z,96902
2017-06-29T06:27:08.322Z,96902
2017-06-29T06:29:36.395Z,96922
2017-06-29T06:32:04.471Z,96907
2017-06-29T06:34:32.550Z,96921
2017-06-29T06:37:00.651Z,96923
2017-06-29T06:39:28.715Z,96914
2017-06-29T06:41:56.787Z,96921
2017-06-29T06:44:24.866Z,96924
2017-06-29T06:46:52.939Z,96927
2017-06-29T06:49:21.022Z,96933
2017-06-29T06:51:49.096Z,96921
2017-06-29T06:54:17.176Z,96924
2017-06-29T06:56:45.295Z,96941
2017-06-29T06:59:13.406Z,96934
2017-06-29T07:01:41.480Z,96937
2017-06-29T07:04:09.563Z,96935
2017-06-29T07:06:37.631Z,96938
2017-06-29T07:09:05.707Z,96930
2017-06-29T07:11:33.786Z,96943
2017-06-29T07:14:03.518Z,96938
2017-06-29T07:16:31.586Z,96951
2017-06-29T07:18:59.750Z,96954
2017-06-29T07:21:27.903Z,96960
2017-06-29T07:23:55.978Z,96958
2017-06-29T07:26:24.067Z,96965
2017-06-29T07:28:52.123Z,96969
2017-06-29T07:31:20.196Z,96966
2017-06-29T07:33:48.323Z,96977
2017-06-29T07:36:16.354Z,96973
2017-06-29T07:38:44.428Z,96978
2017-06-29T07:41:12.492Z,96979
2017-06-29T07:43:40.563Z,96981
2017-06-29T07:46:08.636Z,96982
2017-06-29T07:48:36.719Z,96990
2017-06-29T07:51:04.786Z,96984
2017-06-29T07:53:32.863Z,96979
2017-06-29T07:56:00.934Z,96992
2017-06-29T07:58:29.083Z,96993
2017-06-29T08:00:57.148Z,96993
2017-06-29T08:03:25.216Z,96993
2017-06-29T08:05:53.287Z,97004
2017-06-29T08:08:21.356Z,97003
2017-06-29T08:10:49.431Z,96993
2017-06-29T08:13:17.501Z,97003
2017-06-29T08:15:45.574Z,96999
2017-06-29T08:18:13.651Z,96998
2017-06-29T08:20:41.718Z,97000
2017-06-29T08:23:09.780Z,97001
2017-06-29T08:25:37.886Z,96998
2017-06-29T08:28:05.951Z,97006
2017-06-29T08:30:34.018Z,97009
2017-06-29T08:33:02.095Z,97016
2017-06-29T08:35:30.155Z,97011
2017-06-29T08:37:58.227Z,97006
2017-06-29T08:40:26.299Z,97020
2017-06-29T08:42:54.370Z,97024
2017-06-29T08:45:22.450Z,97020
2017-06-29T08:47:50.535Z,97031
2017-06-29T08:50:18.613Z,97028
2017-06-29T08:52:46.699Z,97043
2017-06-29T08:55:14.772Z,97036
2017-06-29T08:57:42.859Z,97043
2017-06-29T09:00:11.708Z,97047
2017-06-29T09:02:39.770Z,97048
2017-06-29T09:05:07.856Z,97053
2017-06-29T09:07:35.923Z,97054
2017-06-29T09:10:04.007Z,97073
2017-06-29T09:12:32.099Z,97070
2017-06-29T09:15:00.187Z,97077
2017-06-29T09:17:29.028Z,97081
2017-06-29T09:19:57.093Z,97080
2017-06-29T09:22:25.170Z,97091
2017-06-29T09:24:53.239Z,97100
2017-06-29T09:27:21.308Z,97101
2017-06-29T09:29:49.380Z,97099
2017-06-29T09:32:17.453Z,97103
2017-06-29T09:34:45.519Z,97107
2017-06-29T09:37:13.599Z,97111
2017-06-29T09:39:41.670Z,97118
2017-06-29T09:42:09.772Z,97122
2017-06-29T09:44:37.835Z,97127
2017-06-29T09:47:05.911Z,97127
2017-06-29T09:49:33.983Z,97141
2017-06-29T09:52:02.049Z,97138
2017-06-29T09:54:30.126Z,97137
2017-06-29T09:56:58.199Z,97142
2017-06-29T09:59:26.271Z,97151
2017-06-29T10:01:54.346Z,97150
2017-06-29T10:04:22.414Z,97158
2017-06-29T10:06:50.491Z,97160
2017-06-29T10:09:18.587Z,97165
2017-06-29T10:11:46.646Z,97148
2017-06-29T10:14:14.724Z,97152
2017-06-29T10:16:42.799Z,97159
2017-06-29T10:19:10.867Z,97172
2017-06-29T10:21:38.938Z,97159
2017-06-29T10:24:07.006Z,97174
2017-06-29T10:26:35.084Z,97166
2017-06-29T10:29:03.155Z,97173
2017-06-29T10:31:31.228Z,97167
2017-06-29T10:33:59.295Z,97175
2017-06-29T10:36:27.383Z,97178
2017-06-29T10:38:55.652Z,97183
2017-06-29T10:41:23.719Z,97183
2017-06-29T10:43:51.790Z,97183
2017-06-29T10:46:19.867Z,97191
2017-06-29T10:48:47.934Z,97183
2017-06-29T10:51:16.014Z,97195
2017-06-29T10:53:44.092Z,97189
2017-06-29T10:56:12.167Z,97200
2017-06-29T10:58:40.247Z,97189
2017-06-29T11:01:08.315Z,97194
2017-06-29T11:03:37.152Z,97198
2017-06-29T11:06:05.223Z,97200
2017-06-29T11:08:33.282Z,97202
2017-06-29T11:11:01.361Z,97204
2017-06-29T11:13:29.472Z,97207
2017-06-29T11:15:57.551Z,97211
2017-06-29T11:18:25.685Z,97206
2017-06-29T11:20:53.758Z,97215
2017-06-29T11:23:21.845Z,97219
2017-06-29T11:25:49.919Z,97215
2017-06-29T11:28:17.990Z,97225
2017-06-29T11:30:46.047Z,97222
2017-06-29T11:33:14.119Z,97226
2017-06-29T11:35:42.190Z,97232
2017-06-29T11:38:10.266Z,97227
2017-06-29T11:40:38.335Z,97227
2017-06-29T11:43:06.418Z,97237
2017-06-29T11:45:34.499Z,97240
2017-06-29T11:48:02.558Z,97242
2017-06-29T11:50:30.663Z,97241
2017-06-29T11:52:58.728Z,97247
2017-06-29T11:55:26.806Z,97245
2017-06-29T11:57:54.872Z,97242
2017-06-29T12:00:22.939Z,97237
2017-06-29T12:02:50.998Z,97248
2017-06-29T12:05:19.071Z,97242
2017-06-29T12:07:47.147Z,97243
2017-06-29T12:10:15.223Z,97254
2017-06-29T12:12:43.286Z,97244
2017-06-29T12:15:11.348Z,97245
2017-06-29T12:17:39.418Z,97236
2017-06-29T12:20:07.479Z,97246
2017-06-29T12:22:35.557Z,97249
2017-06-29T12:25:03.619Z,97244
2017-06-29T12:27:31.688Z,97252
2017-06-29T12:29:59.749Z,97248
2017-06-29T12:32:27.815Z,97244
2017-06-29T12:34:55.875Z,97254
2017-06-29T12:37:23.997Z,97243
2017-06-29T12:39:52.043Z,97246
2017-06-29T12:42:20.122Z,97255
2017-06-29T12:44:48.851Z,97253
2017-06-29T12:47:16.923Z,97247
2017-06-29T12:49:44.995Z,97252
2017-06-29T12:52:13.080Z,97258
2017-06-29T12:54:41.168Z,97262
2017-06-29T12:57:09.227Z,97265
2017-06-29T12:59:37.298Z,97266
2017-06-29T13:02:05.354Z,97267
2017-06-29T13:04:33.441Z,97271
2017-06-29T13:07:01.514Z,97265
2017-06-29T13:09:29.603Z,97267
2017-06-29T13:11:58.442Z,97262
2017-06-29T13:14:26.514Z,97273
2017-06-29T13:16:54.588Z,97266
2017-06-29T13:19:22.657Z,97267
2017-06-29T13:21:50.732Z,97268
2017-06-29T13:24:19.591Z,97265
2017-06-29T13:26:47.662Z,97274
2017-06-29T13:29:16.893Z,97279
2017-06-29T13:31:44.946Z,97276
2017-06-29T13:34:13.014Z,97279
2017-06-29T13:36:41.078Z,97269
2017-06-29T13:39:09.142Z,97274
2017-06-29T13:41:37.970Z,97264
2017-06-29T13:44:06.068Z,97265
2017-06-29T13:46:34.130Z,97267
2017-06-29T13:49:02.187Z,97271
2017-06-29T13:51:30.260Z,97264
2017-06-29T13:53:58.331Z,97270
2017-06-29T13:56:26.411Z,97274
2017-06-29T13:58:54.475Z,97274
2017-06-29T14:01:22.591Z,97269
2017-06-29T14:03:50.663Z,97259
2017-06-29T14:06:18.730Z,97262
2017-06-29T14:08:46.811Z,97252
2017-06-29T14:11:14.876Z,97253
2017-06-29T14:13:42.952Z,97254
2017-06-29T14:16:11.056Z,97244
2017-06-29T14:18:39.900Z,97242
2017-06-29T14:21:07.967Z,97248
2017-06-29T14:23:36.035Z,97236
2017-06-29T14:26:04.131Z,97241
2017-06-29T14:28:32.191Z,97235
2017-06-29T14:31:00.262Z,97237
2017-06-29T14:33:28.331Z,97234
2017-06-29T14:35:56.476Z,97229
2017-06-29T14:38:24.530Z,97225
2017-06-29T14:40:52.627Z,97227
2017-06-29T14:43:20.699Z,97239
2017-06-29T14:45:48.754Z,97235
2017-06-29T14:48:16.836Z,97229
2017-06-29T14:50:44.885Z,97239
2017-06-29T14:53:12.953Z,97234
2017-06-29T14:55:41.783Z,97243
2017-06-29T14:58:09.854Z,97229
2017-06-29T15:00:37.919Z,97232
2017-06-29T15:03:05.995Z,97232
2017-06-29T15:05:34.050Z,97224
2017-06-29T15:08:02.140Z,97234
2017-06-29T15:10:30.207Z,97221
2017-06-29T15:12:58.282Z,97228
2017-06-29T15:15:26.353Z,97232
2017-06-29T15:17:54.419Z,97227
2017-06-29T15:20:22.494Z,97223
2017-06-29T15:22:50.570Z,97225
2017-06-29T15:25:18.646Z,97223
2017-06-29T15:27:46.831Z,97233
2017-06-29T15:30:14.897Z,97237
2017-06-29T15:32:42.965Z,97240
2017-06-29T15:35:11.049Z,97234
2017-06-29T15:37:39.123Z,97242
2017-06-29T15:40:07.182Z,97245
2017-06-29T15:42:35.263Z,97235
2017-06-29T15:45:03.323Z,97239
2017-06-29T15:47:31.395Z,97242
2017-06-29T15:49:59.475Z,97234
2017-06-29T15:52:27.541Z,97241
2017-06-29T15:54:55.636Z,97236
2017-06-29T15:57:23.754Z,97237
2017-06-29T15:59:52.591Z,97234
2017-06-29T16:02:20.654Z,97239
2017-06-29T16:04:48.723Z,97243
2017-06-29T16:07:16.797Z,97236
2017-06-29T16:09:44.865Z,97239
2017-06-29T16:12:12.939Z,97233
2017-06-29T16:14:41.009Z,97228
2017-06-29T16:17:09.081Z,97231
2017-06-29T16:19:37.206Z,97240
2017-06-29T16:22:05.263Z,97231
2017-06-29T16:24:33.328Z,97229
2017-06-29T16:27:01.430Z,97231
2017-06-29T16:29:29.502Z,97239
2017-06-29T16:31:58.340Z,97233
2017-06-29T16:34:26.407Z,97231
2017-06-29T16:36:54.480Z,97226
2017-06-29T16:39:22.569Z,97226
2017-06-29T16:41:50.647Z,97224
2017-06-29T16:44:18.718Z,97217
2017-06-29T16:46:46.813Z,97228
2017-06-29T16:49:14.878Z,97232
2017-06-29T16:51:42.951Z,97233
2017-06-29T16:54:11.023Z,97235
2017-06-29T16:56:39.093Z,97234
2017-06-29T16:59:07.170Z,97230
2017-06-29T17:01:35.238Z,97234
2017-06-29T17:04:03.334Z,97240
2017-06-29T17:06:32.168Z,97236
2017-06-29T17:09:00.240Z,97228
2017-06-29T17:11:28.311Z,97237
2017-06-29T17:13:56.406Z,97235
2017-06-29T17:16:24.489Z,97239
2017-06-29T17:18:52.550Z,97238
2017-06-29T17:21:20.626Z,97241
2017-06-29T17:23:48.702Z,97242
2017-06-29T17:26:16.807Z,97244
2017-06-29T17:28:45.639Z,97227
2017-06-29T17:31:13.734Z,97226
2017-06-29T17:33:41.794Z,97237
2017-06-29T17:36:09.866Z,97239
2017-06-29T17:38:37.938Z,97226
2017-06-29T17:41:06.018Z,97242
2017-06-29T17:43:34.078Z,97241
2017-06-29T17:46:02.163Z,97235
2017-06-29T17:48:30.225Z,97243
2017-06-29T17:50:58.285Z,97243
2017-06-29T17:53:26.356Z,97246
2017-06-29T17:55:54.423Z,97253
2017-06-29T17:58:22.499Z,97253
2017-06-29T18:00:50.558Z,97249
2017-06-29T18:03:18.678Z,97258
2017-06-29T18:05:46.729Z,97270
2017-06-29T18:08:14.818Z,97278
2017-06-29T18:10:42.882Z,97272
2017-06-29T18:13:10.950Z,97269
2017-06-29T18:15:39.026Z,97268
2017-06-29T18:18:07.095Z,97264
2017-06-29T18:20:35.174Z,97274
2017-06-29T18:23:03.247Z,97283
2017-06-29T18:25:31.346Z,97296
2017-06-29T18:27:59.406Z,97307
2017-06-29T18:30:27.474Z,97311
2017-06-29T18:32:55.549Z,97317
2017-06-29T18:35:23.606Z,97312
2017-06-29T18:37:51.679Z,97313
2017-06-29T18:40:19.776Z,97328
2017-06-29T18:42:47.838Z,97335
2017-06-29T18:45:15.955Z,97345
2017-06-29T18:47:44.098Z,97350
2017-06-29T18:50:12.158Z,97360
2017-06-29T18:52:40.260Z,97365
2017-06-29T18:55:09.239Z,97355
2017-06-29T18:57:37.300Z,97363
2017-06-29T19:00:05.361Z,97374
2017-06-29T19:02:33.453Z,97381
2017-06-29T19:05:01.527Z,97386
2017-06-29T19:07:39.533Z,97384
2017-06-29T19:10:07.622Z,97389
2017-06-29T19:12:35.763Z,97395
2017-06-29T19:15:03.944Z,97396
2017-06-29T19:17:32.908Z,97392
2017-06-29T19:20:01.030Z,97398
2017-06-29T19:22:33.217Z,97400
2017-06-29T19:25:01.312Z,97405
2017-06-29T19:27:29.398Z,97414
2017-06-29T19:29:57.467Z,97407
2017-06-29T19:32:25.539Z,97418
2017-06-29T19:34:53.610Z,97427
2017-06-29T19:37:21.674Z,97421
2017-06-29T19:39:49.760Z,97433
2017-06-29T19:42:18.585Z,97438
2017-06-29T19:44:46.687Z,97445
2017-06-29T19:47:14.754Z,97449
2017-06-29T19:49:42.857Z,97448
2017-06-29T19:52:10.931Z,97440
2017-06-29T19:54:39.023Z,97451
2017-06-29T19:57:07.098Z,97456
2017-06-29T19:59:35.182Z,97450
2017-06-29T20:02:03.254Z,97464
2017-06-29T20:04:31.326Z,97469
2017-06-29T20:06:59.398Z,97470
2017-06-29T20:09:27.471Z,97468
2017-06-29T20:11:55.551Z,97458
2017-06-29T20:14:23.628Z,97466
2017-06-29T20:16:51.704Z,97463
2017-06-29T20:19:20.539Z,97458
2017-06-29T20:21:48.610Z,97461
2017-06-29T20:24:16.691Z,97462
2017-06-29T20:26:44.765Z,97461
2017-06-29T20:29:12.830Z,97462
2017-06-29T20:31:41.080Z,97469
2017-06-29T20:34:09.957Z,97485
2017-06-29T20:36:38.018Z,97484
2017-06-29T20:39:06.091Z,97489
2017-06-29T20:41:34.179Z,97495
2017-06-29T20:44:03.026Z,97502
2017-06-29T20:46:31.126Z,97505
2017-06-29T20:48:59.187Z,97511
2017-06-29T20:51:27.282Z,97501
2017-06-29T20:53:55.612Z,97517
2017-06-29T20:56:23.691Z,97509
2017-06-29T20:58:51.791Z,97519
2017-06-29T21:01:19.863Z,97511
2017-06-29T21:03:47.939Z,97512
2017-06-29T21:06:16.022Z,97521
2017-06-29T21:08:44.887Z,97514
2017-06-29T21:11:12.941Z,97510
2017-06-29T21:13:41.018Z,97524
2017-06-29T21:16:09.090Z,97532
2017-06-29T21:18:37.208Z,97532
2017-06-29T21:21:06.378Z,97538
2017-06-29T21:23:34.477Z,97539
2017-06-29T21:26:03.312Z,97550
2017-06-29T21:28:31.376Z,97550
2017-06-29T21:30:59.447Z,97550
2017-06-29T21:33:27.519Z,97562
2017-06-29T21:35:55.591Z,97561
2017-06-29T21:38:23.666Z,97568
2017-06-29T21:40:51.737Z,97570
2017-06-29T21:43:19.811Z,97571
2017-06-29T21:45:47.890Z,97563
2017-06-29T21:48:15.955Z,97567
2017-06-29T21:50:44.051Z,97579
2017-06-29T21:53:12.127Z,97565
2017-06-29T21:55:40.210Z,97579
2017-06-29T21:58:08.283Z,97561
2017-06-29T22:00:36.343Z,97559
2017-06-29T22:03:04.414Z,97560
2017-06-29T22:05:32.481Z,97565
2017-06-29T22:08:00.555Z,97572
2017-06-29T22:10:28.619Z,97568
2017-06-29T22:12:56.701Z,97564
2017-06-29T22:15:24.777Z,97562
2017-06-29T22:17:52.847Z,97558
2017-06-29T22:20:20.915Z,97562
2017-06-29T22:22:49.004Z,97569
2017-06-29T22:25:17.062Z,97569
2017-06-29T22:27:45.135Z,97569
2017-06-29T22:30:13.206Z,97571
2017-06-29T22:32:41.270Z,97566
2017-06-29T22:35:09.342Z,97567
2017-06-29T22:37:37.402Z,97566
2017-06-29T22:40:05.523Z,97565
2017-06-29T22:42:33.584Z,97569
2017-06-29T22:45:01.668Z,97577
2017-06-29T22:47:29.732Z,97576
2017-06-29T22:49:58.034Z,97572
2017-06-29T22:52:26.891Z,97580
2017-06-29T22:54:54.989Z,97576
2017-06-29T22:57:23.832Z,97590
2017-06-29T22:59:51.919Z,97587
2017-06-29T23:02:19.990Z,97585
2017-06-29T23:04:48.083Z,97595
2017-06-29T23:07:16.154Z,97594
2017-06-29T23:09:44.222Z,97600
2017-06-29T23:12:12.319Z,97589
2017-06-29T23:14:41.159Z,97605
2017-06-29T23:17:09.230Z,97598
2017-06-29T23:19:37.314Z,97607
2017-06-29T23:22:05.382Z,97601
2017-06-29T23:24:33.463Z,97605
2017-06-29T23:27:01.523Z,97594
2017-06-29T23:29:29.631Z,97604
2017-06-29T23:31:57.707Z,97604
2017-06-29T23:34:25.774Z,97599
2017-06-29T23:36:53.838Z,97608
2017-06-29T23:39:21.930Z,97605
2017-06-29T23:41:50.771Z,97614
2017-06-29T23:44:18.847Z,97608
2017-06-29T23:46:46.927Z,97606
2017-06-29T23:49:15.000Z,97607
2017-06-29T23:51:43.074Z,97614
2017-06-29T23:54:11.156Z,97622
2017-06-29T23:56:39.239Z,97612
2017-06-29T23:59:07.302Z,97622
